sensor_id;sensor_type;location;lat;lon;timestamp;temperature;humidity
23311;DHT22;11828;51.508;18.118;2024-03-23T00:55:26;26.80;38.50
23311;DHT22;11828;51.508;18.118;2024-03-23T00:57:53;26.80;38.40
23311;DHT22;11828;51.508;18.118;2024-03-23T01:00:21;26.80;38.40
23311;DHT22;11828;51.508;18.118;2024-03-23T01:02:48;26.80;38.40
23311;DHT22;11828;51.508;18.118;2024-03-23T01:05:18;26.90;38.60
23311;DHT22;11828;51.508;18.118;2024-03-23T01:07:44;26.80;38.40
23311;DHT22;11828;51.508;18.118;2024-03-23T01:10:13;26.80;38.60
23311;DHT22;11828;51.508;18.118;2024-03-23T01:12:39;26.80;38.60
23311;DHT22;11828;51.508;18.118;2024-03-23T01:15:09;26.80;38.70
23311;DHT22;11828;51.508;18.118;2024-03-23T01:17:36;26.90;38.60
23311;DHT22;11828;51.508;18.118;2024-03-23T01:20:05;26.90;38.50
23311;DHT22;11828;51.508;18.118;2024-03-23T01:22:35;26.90;38.60
23311;DHT22;11828;51.508;18.118;2024-03-23T01:25:04;26.90;38.50
23311;DHT22;11828;51.508;18.118;2024-03-23T01:27:31;27.00;38.40
23311;DHT22;11828;51.508;18.118;2024-03-23T01:30:00;27.00;38.40
23311;DHT22;11828;51.508;18.118;2024-03-23T01:32:26;27.00;38.50
23311;DHT22;11828;51.508;18.118;2024-03-23T01:34:55;27.10;38.30
23311;DHT22;11828;51.508;18.118;2024-03-23T01:37:22;27.20;38.30
23311;DHT22;11828;51.508;18.118;2024-03-23T01:39:52;27.20;38.10
23311;DHT22;11828;51.508;18.118;2024-03-23T01:42:18;27.20;38.10
23311;DHT22;11828;51.508;18.118;2024-03-23T01:44:46;27.30;38.10
23311;DHT22;11828;51.508;18.118;2024-03-23T01:47:13;27.30;38.00
23311;DHT22;11828;51.508;18.118;2024-03-23T01:49:42;27.30;38.00
23311;DHT22;11828;51.508;18.118;2024-03-23T01:52:08;27.30;37.90
23311;DHT22;11828;51.508;18.118;2024-03-23T01:54:37;27.30;37.90
23311;DHT22;11828;51.508;18.118;2024-03-23T01:57:05;27.30;38.00
23311;DHT22;11828;51.508;18.118;2024-03-23T01:59:34;27.40;37.90
23311;DHT22;11828;51.508;18.118;2024-03-23T02:02:02;27.30;37.90
23311;DHT22;11828;51.508;18.118;2024-03-23T02:04:30;27.30;37.90
23311;DHT22;11828;51.508;18.118;2024-03-23T02:06:57;27.20;37.90
23311;DHT22;11828;51.508;18.118;2024-03-23T02:09:25;27.20;37.90
23311;DHT22;11828;51.508;18.118;2024-03-23T02:11:52;27.30;37.90
23311;DHT22;11828;51.508;18.118;2024-03-23T02:14:22;27.30;37.90
23311;DHT22;11828;51.508;18.118;2024-03-23T02:16:48;27.30;37.80
23311;DHT22;11828;51.508;18.118;2024-03-23T02:19:17;27.30;37.80
23311;DHT22;11828;51.508;18.118;2024-03-23T02:21:44;27.30;37.80
23311;DHT22;11828;51.508;18.118;2024-03-23T02:24:14;27.30;37.70
23311;DHT22;11828;51.508;18.118;2024-03-23T02:26:41;27.20;37.80
23311;DHT22;11828;51.508;18.118;2024-03-23T02:29:09;27.10;37.90
23311;DHT22;11828;51.508;18.118;2024-03-23T02:31:36;27.00;38.00
23311;DHT22;11828;51.508;18.118;2024-03-23T02:34:04;27.00;38.10
23311;DHT22;11828;51.508;18.118;2024-03-23T02:36:31;27.00;38.00
23311;DHT22;11828;51.508;18.118;2024-03-23T02:39:00;27.00;38.00
23311;DHT22;11828;51.508;18.118;2024-03-23T02:41:28;27.00;38.00
23311;DHT22;11828;51.508;18.118;2024-03-23T02:43:56;26.90;37.90
23311;DHT22;11828;51.508;18.118;2024-03-23T02:46:23;26.90;37.90
23311;DHT22;11828;51.508;18.118;2024-03-23T02:48:52;26.80;38.00
23311;DHT22;11828;51.508;18.118;2024-03-23T02:51:18;26.70;38.20
23311;DHT22;11828;51.508;18.118;2024-03-23T02:53:47;26.70;38.40
23311;DHT22;11828;51.508;18.118;2024-03-23T02:56:13;26.60;38.30
23311;DHT22;11828;51.508;18.118;2024-03-23T02:58:44;26.70;38.30
23311;DHT22;11828;51.508;18.118;2024-03-23T03:01:11;26.70;38.40
23311;DHT22;11828;51.508;18.118;2024-03-23T03:03:39;26.80;38.10
23311;DHT22;11828;51.508;18.118;2024-03-23T03:06:06;26.90;37.90
23311;DHT22;11828;51.508;18.118;2024-03-23T03:08:34;26.90;37.90
23311;DHT22;11828;51.508;18.118;2024-03-23T03:11:01;26.90;38.00
23311;DHT22;11828;51.508;18.118;2024-03-23T03:13:30;27.00;37.90
23311;DHT22;11828;51.508;18.118;2024-03-23T03:15:58;27.00;37.70
23311;DHT22;11828;51.508;18.118;2024-03-23T03:18:26;27.00;37.60
23311;DHT22;11828;51.508;18.118;2024-03-23T03:20:54;26.90;37.70
23311;DHT22;11828;51.508;18.118;2024-03-23T03:23:23;26.90;37.70
23311;DHT22;11828;51.508;18.118;2024-03-23T03:25:50;26.80;37.70
23311;DHT22;11828;51.508;18.118;2024-03-23T03:28:19;26.70;38.00
23311;DHT22;11828;51.508;18.118;2024-03-23T03:30:46;26.50;38.20
23311;DHT22;11828;51.508;18.118;2024-03-23T03:33:16;26.60;38.20
23311;DHT22;11828;51.508;18.118;2024-03-23T03:35:43;26.50;38.30
23311;DHT22;11828;51.508;18.118;2024-03-23T03:38:11;26.50;38.20
23311;DHT22;11828;51.508;18.118;2024-03-23T03:40:38;26.50;38.40
23311;DHT22;11828;51.508;18.118;2024-03-23T03:43:07;26.40;38.40
23311;DHT22;11828;51.508;18.118;2024-03-23T03:45:34;26.30;38.50
23311;DHT22;11828;51.508;18.118;2024-03-23T03:48:02;26.30;38.40
23311;DHT22;11828;51.508;18.118;2024-03-23T03:50:31;26.40;38.30
23311;DHT22;11828;51.508;18.118;2024-03-23T03:53:00;26.40;38.30
23311;DHT22;11828;51.508;18.118;2024-03-23T03:55:27;26.40;38.20
23311;DHT22;11828;51.508;18.118;2024-03-23T03:57:55;26.40;38.20
23311;DHT22;11828;51.508;18.118;2024-03-23T04:00:22;26.30;38.40
23311;DHT22;11828;51.508;18.118;2024-03-23T04:02:50;26.40;38.50
23311;DHT22;11828;51.508;18.118;2024-03-23T04:05:17;26.40;38.50
23311;DHT22;11828;51.508;18.118;2024-03-23T04:07:47;26.30;38.40
23311;DHT22;11828;51.508;18.118;2024-03-23T04:10:15;26.20;38.40
23311;DHT22;11828;51.508;18.118;2024-03-23T04:12:44;26.30;38.60
23311;DHT22;11828;51.508;18.118;2024-03-23T04:15:11;26.30;38.50
23311;DHT22;11828;51.508;18.118;2024-03-23T04:17:40;26.20;38.50
23311;DHT22;11828;51.508;18.118;2024-03-23T04:20:09;26.20;38.50
23311;DHT22;11828;51.508;18.118;2024-03-23T04:22:40;26.20;38.40
23311;DHT22;11828;51.508;18.118;2024-03-23T04:25:08;26.20;38.40
23311;DHT22;11828;51.508;18.118;2024-03-23T04:27:37;26.20;38.40
23311;DHT22;11828;51.508;18.118;2024-03-23T04:30:05;26.20;38.60
23311;DHT22;11828;51.508;18.118;2024-03-23T04:32:37;26.20;38.60
23311;DHT22;11828;51.508;18.118;2024-03-23T04:35:05;26.20;38.60
23311;DHT22;11828;51.508;18.118;2024-03-23T04:37:35;26.20;38.60
23311;DHT22;11828;51.508;18.118;2024-03-23T04:40:04;26.20;38.60
23311;DHT22;11828;51.508;18.118;2024-03-23T04:42:36;26.20;38.40
23311;DHT22;11828;51.508;18.118;2024-03-23T04:45:05;26.20;38.40
23311;DHT22;11828;51.508;18.118;2024-03-23T04:47:35;26.20;38.30
23311;DHT22;11828;51.508;18.118;2024-03-23T04:50:04;26.30;38.20
23311;DHT22;11828;51.508;18.118;2024-03-23T04:52:32;26.40;38.10
23311;DHT22;11828;51.508;18.118;2024-03-23T04:55:01;26.40;37.90
23311;DHT22;11828;51.508;18.118;2024-03-23T04:57:28;26.50;37.90
23311;DHT22;11828;51.508;18.118;2024-03-23T04:59:57;26.50;37.70
23311;DHT22;11828;51.508;18.118;2024-03-23T05:02:24;26.50;37.70
23311;DHT22;11828;51.508;18.118;2024-03-23T05:04:53;26.50;37.80
23311;DHT22;11828;51.508;18.118;2024-03-23T05:07:20;26.40;37.70
23311;DHT22;11828;51.508;18.118;2024-03-23T05:09:48;26.40;37.80
23311;DHT22;11828;51.508;18.118;2024-03-23T05:12:15;26.40;37.80
23311;DHT22;11828;51.508;18.118;2024-03-23T05:14:43;26.30;37.70
23311;DHT22;11828;51.508;18.118;2024-03-23T05:17:11;26.30;37.90
23311;DHT22;11828;51.508;18.118;2024-03-23T05:19:40;26.40;37.80
23311;DHT22;11828;51.508;18.118;2024-03-23T05:22:07;26.40;37.60
23311;DHT22;11828;51.508;18.118;2024-03-23T05:24:35;26.40;37.50
23311;DHT22;11828;51.508;18.118;2024-03-23T05:27:02;26.50;37.60
23311;DHT22;11828;51.508;18.118;2024-03-23T05:29:32;26.50;37.60
23311;DHT22;11828;51.508;18.118;2024-03-23T05:31:59;26.50;37.60
23311;DHT22;11828;51.508;18.118;2024-03-23T05:34:28;26.60;37.40
23311;DHT22;11828;51.508;18.118;2024-03-23T05:36:55;26.70;37.30
23311;DHT22;11828;51.508;18.118;2024-03-23T05:39:23;26.70;37.20
23311;DHT22;11828;51.508;18.118;2024-03-23T05:41:50;26.70;37.10
23311;DHT22;11828;51.508;18.118;2024-03-23T05:44:18;26.70;37.30
23311;DHT22;11828;51.508;18.118;2024-03-23T05:46:45;26.70;37.20
23311;DHT22;11828;51.508;18.118;2024-03-23T05:49:15;26.60;37.20
23311;DHT22;11828;51.508;18.118;2024-03-23T05:51:43;26.60;37.30
23311;DHT22;11828;51.508;18.118;2024-03-23T05:54:11;26.70;37.20
23311;DHT22;11828;51.508;18.118;2024-03-23T05:56:38;26.60;37.30
23311;DHT22;11828;51.508;18.118;2024-03-23T05:59:06;26.70;37.20
23311;DHT22;11828;51.508;18.118;2024-03-23T06:01:33;26.70;37.20
23311;DHT22;11828;51.508;18.118;2024-03-23T06:04:02;26.60;37.40
23311;DHT22;11828;51.508;18.118;2024-03-23T06:06:29;26.60;37.40
23311;DHT22;11828;51.508;18.118;2024-03-23T06:08:59;26.60;37.50
23311;DHT22;11828;51.508;18.118;2024-03-23T06:11:26;26.60;37.40
23311;DHT22;11828;51.508;18.118;2024-03-23T06:13:54;26.60;37.40
23311;DHT22;11828;51.508;18.118;2024-03-23T06:16:22;26.60;37.60
23311;DHT22;11828;51.508;18.118;2024-03-23T06:18:50;26.70;37.60
23311;DHT22;11828;51.508;18.118;2024-03-23T06:21:17;26.90;37.30
23311;DHT22;11828;51.508;18.118;2024-03-23T06:23:46;26.80;37.20
23311;DHT22;11828;51.508;18.118;2024-03-23T06:26:19;26.90;37.10
23311;DHT22;11828;51.508;18.118;2024-03-23T06:28:46;27.00;36.90
23311;DHT22;11828;51.508;18.118;2024-03-23T06:31:14;26.90;37.00
23311;DHT22;11828;51.508;18.118;2024-03-23T06:33:41;26.90;37.00
23311;DHT22;11828;51.508;18.118;2024-03-23T06:36:10;27.00;37.00
23311;DHT22;11828;51.508;18.118;2024-03-23T06:38:36;26.90;37.00
23311;DHT22;11828;51.508;18.118;2024-03-23T06:41:05;27.00;37.00
23311;DHT22;11828;51.508;18.118;2024-03-23T06:43:33;27.00;36.90
23311;DHT22;11828;51.508;18.118;2024-03-23T06:46:02;27.00;36.90
23311;DHT22;11828;51.508;18.118;2024-03-23T06:48:30;26.90;36.70
23311;DHT22;11828;51.508;18.118;2024-03-23T06:50:58;26.90;36.90
23311;DHT22;11828;51.508;18.118;2024-03-23T06:53:25;27.00;36.90
23311;DHT22;11828;51.508;18.118;2024-03-23T06:55:54;27.10;36.80
23311;DHT22;11828;51.508;18.118;2024-03-23T06:58:21;27.20;36.60
23311;DHT22;11828;51.508;18.118;2024-03-23T07:00:53;27.30;36.50
23311;DHT22;11828;51.508;18.118;2024-03-23T07:03:20;27.40;36.20
23311;DHT22;11828;51.508;18.118;2024-03-23T07:05:50;27.50;36.10
23311;DHT22;11828;51.508;18.118;2024-03-23T07:08:16;27.50;36.00
23311;DHT22;11828;51.508;18.118;2024-03-23T07:10:48;27.50;35.90
23311;DHT22;11828;51.508;18.118;2024-03-23T07:13:15;27.50;35.80
23311;DHT22;11828;51.508;18.118;2024-03-23T07:15:52;27.50;35.80
23311;DHT22;11828;51.508;18.118;2024-03-23T07:18:20;27.60;35.70
23311;DHT22;11828;51.508;18.118;2024-03-23T07:20:53;27.70;35.90
23311;DHT22;11828;51.508;18.118;2024-03-23T07:23:20;28.00;35.60
23311;DHT22;11828;51.508;18.118;2024-03-23T07:25:56;28.60;35.80
23311;DHT22;11828;51.508;18.118;2024-03-23T07:28:23;29.50;35.60
23311;DHT22;11828;51.508;18.118;2024-03-23T07:31:12;30.60;34.10
23311;DHT22;11828;51.508;18.118;2024-03-23T07:33:42;31.80;33.00
23311;DHT22;11828;51.508;18.118;2024-03-23T07:36:12;32.90;32.40
23311;DHT22;11828;51.508;18.118;2024-03-23T07:38:40;34.00;30.80
23311;DHT22;11828;51.508;18.118;2024-03-23T07:41:10;34.80;29.50
23311;DHT22;11828;51.508;18.118;2024-03-23T07:43:37;35.40;28.60
23311;DHT22;11828;51.508;18.118;2024-03-23T07:46:08;35.90;28.30
23311;DHT22;11828;51.508;18.118;2024-03-23T07:48:35;36.40;27.40
23311;DHT22;11828;51.508;18.118;2024-03-23T07:51:05;36.60;27.10
23311;DHT22;11828;51.508;18.118;2024-03-23T07:53:34;37.00;26.90
23311;DHT22;11828;51.508;18.118;2024-03-23T07:56:05;37.30;26.30
23311;DHT22;11828;51.508;18.118;2024-03-23T07:58:32;37.60;26.10
23311;DHT22;11828;51.508;18.118;2024-03-23T08:01:04;37.80;25.90
23311;DHT22;11828;51.508;18.118;2024-03-23T08:03:35;38.10;25.90
23311;DHT22;11828;51.508;18.118;2024-03-23T08:06:07;38.60;25.60
23311;DHT22;11828;51.508;18.118;2024-03-23T08:08:34;39.10;25.10
23311;DHT22;11828;51.508;18.118;2024-03-23T08:11:03;39.60;25.10
23311;DHT22;11828;51.508;18.118;2024-03-23T08:13:30;40.00;24.20
23311;DHT22;11828;51.508;18.118;2024-03-23T08:16:01;40.30;23.80
23311;DHT22;11828;51.508;18.118;2024-03-23T08:18:29;40.60;23.80
23311;DHT22;11828;51.508;18.118;2024-03-23T08:21:00;40.80;23.60
23311;DHT22;11828;51.508;18.118;2024-03-23T08:23:28;41.20;23.50
23311;DHT22;11828;51.508;18.118;2024-03-23T08:25:58;41.50;23.30
23311;DHT22;11828;51.508;18.118;2024-03-23T08:28:25;41.80;23.00
23311;DHT22;11828;51.508;18.118;2024-03-23T08:30:54;42.10;22.80
23311;DHT22;11828;51.508;18.118;2024-03-23T08:33:21;42.30;22.50
23311;DHT22;11828;51.508;18.118;2024-03-23T08:35:54;42.50;22.40
23311;DHT22;11828;51.508;18.118;2024-03-23T08:38:23;42.60;22.20
23311;DHT22;11828;51.508;18.118;2024-03-23T08:40:56;43.10;22.40
23311;DHT22;11828;51.508;18.118;2024-03-23T08:43:23;43.50;22.10
23311;DHT22;11828;51.508;18.118;2024-03-23T08:45:51;44.10;22.00
23311;DHT22;11828;51.508;18.118;2024-03-23T08:48:19;44.50;21.50
23311;DHT22;11828;51.508;18.118;2024-03-23T08:50:57;44.40;21.10
23311;DHT22;11828;51.508;18.118;2024-03-23T08:53:29;44.00;20.90
23311;DHT22;11828;51.508;18.118;2024-03-23T08:55:58;43.00;20.60
23311;DHT22;11828;51.508;18.118;2024-03-23T08:58:27;42.30;21.20
23311;DHT22;11828;51.508;18.118;2024-03-23T09:01:02;41.40;21.40
23311;DHT22;11828;51.508;18.118;2024-03-23T09:03:29;40.40;21.90
23311;DHT22;11828;51.508;18.118;2024-03-23T09:05:57;39.50;22.40
23311;DHT22;11828;51.508;18.118;2024-03-23T09:08:24;38.70;22.90
23311;DHT22;11828;51.508;18.118;2024-03-23T09:10:53;38.10;23.40
23311;DHT22;11828;51.508;18.118;2024-03-23T09:13:20;37.70;23.70
23311;DHT22;11828;51.508;18.118;2024-03-23T09:15:50;37.50;24.10
23311;DHT22;11828;51.508;18.118;2024-03-23T09:18:17;37.70;24.40
23311;DHT22;11828;51.508;18.118;2024-03-23T09:20:45;38.40;24.00
23311;DHT22;11828;51.508;18.118;2024-03-23T09:23:12;38.90;23.70
23311;DHT22;11828;51.508;18.118;2024-03-23T09:25:41;39.20;23.30
23311;DHT22;11828;51.508;18.118;2024-03-23T09:28:09;39.50;23.20
23311;DHT22;11828;51.508;18.118;2024-03-23T09:30:37;40.00;23.00
23311;DHT22;11828;51.508;18.118;2024-03-23T09:33:08;40.10;22.50
23311;DHT22;11828;51.508;18.118;2024-03-23T09:35:37;40.00;22.80
23311;DHT22;11828;51.508;18.118;2024-03-23T09:38:05;40.30;23.00
23311;DHT22;11828;51.508;18.118;2024-03-23T09:40:35;40.50;22.40
23311;DHT22;11828;51.508;18.118;2024-03-23T09:43:06;40.10;22.20
23311;DHT22;11828;51.508;18.118;2024-03-23T09:45:39;39.60;22.60
23311;DHT22;11828;51.508;18.118;2024-03-23T09:48:08;39.00;22.80
23311;DHT22;11828;51.508;18.118;2024-03-23T09:50:37;38.50;23.10
23311;DHT22;11828;51.508;18.118;2024-03-23T09:53:05;37.90;23.50
23311;DHT22;11828;51.508;18.118;2024-03-23T09:55:34;37.30;23.60
23311;DHT22;11828;51.508;18.118;2024-03-23T09:58:02;36.60;24.10
23311;DHT22;11828;51.508;18.118;2024-03-23T10:00:30;35.90;24.50
23311;DHT22;11828;51.508;18.118;2024-03-23T10:03:00;35.30;25.10
23311;DHT22;11828;51.508;18.118;2024-03-23T10:05:29;34.70;25.60
23311;DHT22;11828;51.508;18.118;2024-03-23T10:07:57;34.20;26.20
23311;DHT22;11828;51.508;18.118;2024-03-23T10:10:25;33.70;26.60
23311;DHT22;11828;51.508;18.118;2024-03-23T10:12:52;33.30;26.90
23311;DHT22;11828;51.508;18.118;2024-03-23T10:15:21;33.00;27.40
23311;DHT22;11828;51.508;18.118;2024-03-23T10:17:50;32.70;27.80
23311;DHT22;11828;51.508;18.118;2024-03-23T10:20:21;32.30;28.00
23311;DHT22;11828;51.508;18.118;2024-03-23T10:22:49;32.10;28.30
23311;DHT22;11828;51.508;18.118;2024-03-23T10:25:17;31.80;28.50
23311;DHT22;11828;51.508;18.118;2024-03-23T10:27:57;31.60;28.60
23311;DHT22;11828;51.508;18.118;2024-03-23T10:30:25;31.30;28.80
23311;DHT22;11828;51.508;18.118;2024-03-23T10:33:07;31.10;29.50
23311;DHT22;11828;51.508;18.118;2024-03-23T10:35:37;30.80;29.60
23311;DHT22;11828;51.508;18.118;2024-03-23T10:38:09;30.80;29.60
23311;DHT22;11828;51.508;18.118;2024-03-23T10:40:36;30.70;29.80
23311;DHT22;11828;51.508;18.118;2024-03-23T10:43:07;30.70;30.00
23311;DHT22;11828;51.508;18.118;2024-03-23T10:45:35;30.70;30.00
23311;DHT22;11828;51.508;18.118;2024-03-23T10:48:03;30.80;29.90
23311;DHT22;11828;51.508;18.118;2024-03-23T10:50:31;30.70;29.90
23311;DHT22;11828;51.508;18.118;2024-03-23T10:52:59;30.80;29.90
23311;DHT22;11828;51.508;18.118;2024-03-23T10:55:28;31.00;29.80
23311;DHT22;11828;51.508;18.118;2024-03-23T10:57:58;31.00;29.60
23311;DHT22;11828;51.508;18.118;2024-03-23T11:00:27;31.00;29.50
23311;DHT22;11828;51.508;18.118;2024-03-23T11:02:53;31.10;29.50
23311;DHT22;11828;51.508;18.118;2024-03-23T11:05:31;31.10;29.50
23311;DHT22;11828;51.508;18.118;2024-03-23T11:08:00;31.00;29.60
23311;DHT22;11828;51.508;18.118;2024-03-23T11:10:28;31.10;29.60
23311;DHT22;11828;51.508;18.118;2024-03-23T11:12:56;31.20;29.70
23311;DHT22;11828;51.508;18.118;2024-03-23T11:15:24;31.50;29.60
23311;DHT22;11828;51.508;18.118;2024-03-23T11:18:04;31.70;29.60
23311;DHT22;11828;51.508;18.118;2024-03-23T11:20:34;31.90;29.50
23311;DHT22;11828;51.508;18.118;2024-03-23T11:23:04;32.00;29.10
23311;DHT22;11828;51.508;18.118;2024-03-23T11:25:34;32.10;29.30
23311;DHT22;11828;51.508;18.118;2024-03-23T11:28:11;32.20;29.30
23311;DHT22;11828;51.508;18.118;2024-03-23T11:30:40;32.30;29.20
23311;DHT22;11828;51.508;18.118;2024-03-23T11:33:08;32.50;29.20
23311;DHT22;11828;51.508;18.118;2024-03-23T11:35:38;32.50;29.00
23311;DHT22;11828;51.508;18.118;2024-03-23T11:38:09;32.60;29.00
23311;DHT22;11828;51.508;18.118;2024-03-23T11:40:38;32.60;29.00
23311;DHT22;11828;51.508;18.118;2024-03-23T11:43:07;32.60;28.70
23311;DHT22;11828;51.508;18.118;2024-03-23T11:45:38;32.60;28.60
23311;DHT22;11828;51.508;18.118;2024-03-23T11:48:13;32.70;28.70
23311;DHT22;11828;51.508;18.118;2024-03-23T11:50:44;32.80;28.80
23311;DHT22;11828;51.508;18.118;2024-03-23T11:53:17;33.00;28.70
23311;DHT22;11828;51.508;18.118;2024-03-23T11:55:48;33.10;28.60
23311;DHT22;11828;51.508;18.118;2024-03-23T11:58:17;33.30;28.80
23311;DHT22;11828;51.508;18.118;2024-03-23T12:00:52;33.50;28.50
23311;DHT22;11828;51.508;18.118;2024-03-23T12:03:19;33.80;28.50
23311;DHT22;11828;51.508;18.118;2024-03-23T12:05:49;33.90;28.30
23311;DHT22;11828;51.508;18.118;2024-03-23T12:08:22;34.00;28.30
23311;DHT22;11828;51.508;18.118;2024-03-23T12:10:52;34.10;28.30
23311;DHT22;11828;51.508;18.118;2024-03-23T12:13:20;34.30;28.20
23311;DHT22;11828;51.508;18.118;2024-03-23T12:15:50;34.60;28.00
23311;DHT22;11828;51.508;18.118;2024-03-23T12:18:23;35.00;27.90
23311;DHT22;11828;51.508;18.118;2024-03-23T12:20:52;35.30;27.60
23311;DHT22;11828;51.508;18.118;2024-03-23T12:23:20;35.80;27.40
23311;DHT22;11828;51.508;18.118;2024-03-23T12:25:49;35.90;26.90
23311;DHT22;11828;51.508;18.118;2024-03-23T12:28:16;36.00;26.90
23311;DHT22;11828;51.508;18.118;2024-03-23T12:30:44;35.90;26.90
23311;DHT22;11828;51.508;18.118;2024-03-23T12:33:11;35.80;26.80
23311;DHT22;11828;51.508;18.118;2024-03-23T12:35:39;35.70;26.70
23311;DHT22;11828;51.508;18.118;2024-03-23T12:38:06;35.50;26.50
23311;DHT22;11828;51.508;18.118;2024-03-23T12:40:36;35.40;26.50
23311;DHT22;11828;51.508;18.118;2024-03-23T12:43:04;35.20;26.60
23311;DHT22;11828;51.508;18.118;2024-03-23T12:45:33;35.00;26.50
23311;DHT22;11828;51.508;18.118;2024-03-23T12:48:00;34.90;26.60
23311;DHT22;11828;51.508;18.118;2024-03-23T12:50:28;35.00;26.80
23311;DHT22;11828;51.508;18.118;2024-03-23T12:52:55;35.30;26.60
23311;DHT22;11828;51.508;18.118;2024-03-23T12:55:23;35.40;26.40
23311;DHT22;11828;51.508;18.118;2024-03-23T12:57:52;35.50;26.30
23311;DHT22;11828;51.508;18.118;2024-03-23T13:00:20;35.50;26.20
23311;DHT22;11828;51.508;18.118;2024-03-23T13:02:47;35.30;26.00
23311;DHT22;11828;51.508;18.118;2024-03-23T13:05:16;35.20;26.30
23311;DHT22;11828;51.508;18.118;2024-03-23T13:07:43;34.90;26.50
23311;DHT22;11828;51.508;18.118;2024-03-23T13:10:11;34.70;26.90
23311;DHT22;11828;51.508;18.118;2024-03-23T13:12:38;34.40;27.30
23311;DHT22;11828;51.508;18.118;2024-03-23T13:15:08;34.20;28.10
23311;DHT22;11828;51.508;18.118;2024-03-23T13:17:36;33.80;28.30
23311;DHT22;11828;51.508;18.118;2024-03-23T13:20:05;33.40;28.90
23311;DHT22;11828;51.508;18.118;2024-03-23T13:22:39;33.00;29.50
23311;DHT22;11828;51.508;18.118;2024-03-23T13:25:08;32.60;29.30
23311;DHT22;11828;51.508;18.118;2024-03-23T13:27:36;32.30;30.00
23311;DHT22;11828;51.508;18.118;2024-03-23T13:30:06;32.10;29.90
23311;DHT22;11828;51.508;18.118;2024-03-23T13:32:38;31.80;30.20
23311;DHT22;11828;51.508;18.118;2024-03-23T13:35:06;31.70;30.60
23311;DHT22;11828;51.508;18.118;2024-03-23T13:37:34;31.50;30.90
23311;DHT22;11828;51.508;18.118;2024-03-23T13:40:03;31.20;30.50
23311;DHT22;11828;51.508;18.118;2024-03-23T13:42:32;31.10;30.80
23311;DHT22;11828;51.508;18.118;2024-03-23T13:45:00;30.90;31.00
23311;DHT22;11828;51.508;18.118;2024-03-23T13:47:28;30.70;31.40
23311;DHT22;11828;51.508;18.118;2024-03-23T13:49:56;30.60;31.80
23311;DHT22;11828;51.508;18.118;2024-03-23T13:52:23;30.50;32.40
23311;DHT22;11828;51.508;18.118;2024-03-23T13:54:52;30.50;33.10
23311;DHT22;11828;51.508;18.118;2024-03-23T13:57:19;30.40;32.80
23311;DHT22;11828;51.508;18.118;2024-03-23T13:59:48;30.40;33.20
23311;DHT22;11828;51.508;18.118;2024-03-23T14:02:15;30.40;32.90
23311;DHT22;11828;51.508;18.118;2024-03-23T14:04:45;30.50;33.10
23311;DHT22;11828;51.508;18.118;2024-03-23T14:07:12;30.60;32.60
23311;DHT22;11828;51.508;18.118;2024-03-23T14:09:42;30.60;32.30
23311;DHT22;11828;51.508;18.118;2024-03-23T14:12:09;30.60;32.40
23311;DHT22;11828;51.508;18.118;2024-03-23T14:14:38;30.60;32.20
23311;DHT22;11828;51.508;18.118;2024-03-23T14:17:05;30.50;32.30
23311;DHT22;11828;51.508;18.118;2024-03-23T14:19:33;30.60;32.50
23311;DHT22;11828;51.508;18.118;2024-03-23T14:22:01;30.60;33.10
23311;DHT22;11828;51.508;18.118;2024-03-23T14:24:32;30.70;31.80
23311;DHT22;11828;51.508;18.118;2024-03-23T14:27:00;30.70;31.00
23311;DHT22;11828;51.508;18.118;2024-03-23T14:29:31;30.70;30.70
23311;DHT22;11828;51.508;18.118;2024-03-23T14:31:59;31.00;30.70
23311;DHT22;11828;51.508;18.118;2024-03-23T14:34:27;31.40;30.70
23311;DHT22;11828;51.508;18.118;2024-03-23T14:36:54;31.50;29.60
23311;DHT22;11828;51.508;18.118;2024-03-23T14:39:24;31.40;29.30
23311;DHT22;11828;51.508;18.118;2024-03-23T14:41:52;31.20;29.20
23311;DHT22;11828;51.508;18.118;2024-03-23T14:44:20;31.20;29.40
23311;DHT22;11828;51.508;18.118;2024-03-23T14:46:47;31.20;29.70
23311;DHT22;11828;51.508;18.118;2024-03-23T14:49:15;31.20;29.00
23311;DHT22;11828;51.508;18.118;2024-03-23T14:51:43;31.00;29.10
23311;DHT22;11828;51.508;18.118;2024-03-23T14:54:11;30.70;29.00
23311;DHT22;11828;51.508;18.118;2024-03-23T14:56:40;30.20;29.10
23311;DHT22;11828;51.508;18.118;2024-03-23T14:59:08;29.90;29.50
23311;DHT22;11828;51.508;18.118;2024-03-23T15:01:36;29.50;29.90
23311;DHT22;11828;51.508;18.118;2024-03-23T15:04:04;29.10;30.40
23311;DHT22;11828;51.508;18.118;2024-03-23T15:06:32;28.80;30.80
23311;DHT22;11828;51.508;18.118;2024-03-23T15:09:00;28.40;30.90
23311;DHT22;11828;51.508;18.118;2024-03-23T15:11:28;28.00;31.20
23311;DHT22;11828;51.508;18.118;2024-03-23T15:13:57;27.70;31.60
23311;DHT22;11828;51.508;18.118;2024-03-23T15:16:24;27.40;31.90
23311;DHT22;11828;51.508;18.118;2024-03-23T15:18:52;27.20;32.30
23311;DHT22;11828;51.508;18.118;2024-03-23T15:21:19;27.00;32.40
23311;DHT22;11828;51.508;18.118;2024-03-23T15:23:47;26.70;32.50
23311;DHT22;11828;51.508;18.118;2024-03-23T15:26:15;26.50;32.10
23311;DHT22;11828;51.508;18.118;2024-03-23T15:28:42;26.30;32.40
23311;DHT22;11828;51.508;18.118;2024-03-23T15:31:32;26.10;32.30
23311;DHT22;11828;51.508;18.118;2024-03-23T15:33:59;26.00;32.70
23311;DHT22;11828;51.508;18.118;2024-03-23T15:36:28;25.80;32.50
23311;DHT22;11828;51.508;18.118;2024-03-23T15:38:55;25.70;32.70
23311;DHT22;11828;51.508;18.118;2024-03-23T15:41:23;25.60;33.00
23311;DHT22;11828;51.508;18.118;2024-03-23T15:43:50;25.40;33.20
23311;DHT22;11828;51.508;18.118;2024-03-23T15:46:19;25.20;33.30
23311;DHT22;11828;51.508;18.118;2024-03-23T15:48:48;25.10;33.50
23311;DHT22;11828;51.508;18.118;2024-03-23T15:51:17;25.00;33.40
23311;DHT22;11828;51.508;18.118;2024-03-23T15:53:44;24.90;33.60
23311;DHT22;11828;51.508;18.118;2024-03-23T15:56:12;24.90;33.60
23311;DHT22;11828;51.508;18.118;2024-03-23T15:58:39;24.80;33.60
23311;DHT22;11828;51.508;18.118;2024-03-23T16:01:08;24.70;33.70
23311;DHT22;11828;51.508;18.118;2024-03-23T16:03:35;24.70;33.70
23311;DHT22;11828;51.508;18.118;2024-03-23T16:06:06;24.70;33.60
23311;DHT22;11828;51.508;18.118;2024-03-23T16:08:33;24.70;33.50
23311;DHT22;11828;51.508;18.118;2024-03-23T16:11:03;24.70;33.30
23311;DHT22;11828;51.508;18.118;2024-03-23T16:13:30;24.80;33.10
23311;DHT22;11828;51.508;18.118;2024-03-23T16:16:00;24.70;32.40
23311;DHT22;11828;51.508;18.118;2024-03-23T16:18:29;24.70;32.20